Time,TemperatureF,DewpointF,PressureIn,WindDirection,WindDirectionDegrees,WindSpeedMPH,WindSpeedGustMPH,Humidity,HourlyPrecipIn,Conditions,Clouds,dailyrainin,SolarRadiationWatts/m^2,SoftwareType,DateUTC
2013-12-20 00:12:00,33.0,28.0,-100.00,SW,217,3.0,5.0,82,0.00,,,0.00,0.000000,,2013-12-20 05:12:00,
2013-12-20 00:22:00,33.0,28.0,-100.00,SW,217,3.0,5.0,82,0.00,,,0.00,0.000000,,2013-12-20 05:22:00,
2013-12-20 00:33:00,33.0,28.0,-100.00,SW,217,3.0,5.0,82,0.00,,,0.00,0.000000,,2013-12-20 05:33:00,
2013-12-20 01:12:00,31.0,29.0,-100.00,SSW,194,1.0,5.0,91,0.00,,,0.00,0.000000,,2013-12-20 06:12:00,
2013-12-20 01:22:00,31.0,29.0,-100.00,SSW,194,1.0,5.0,91,0.00,,,0.00,0.000000,,2013-12-20 06:22:00,
2013-12-20 01:32:00,31.0,29.0,-100.00,SSW,194,1.0,5.0,91,0.00,,,0.00,0.000000,,2013-12-20 06:32:00,
2013-12-20 02:12:00,31.0,29.0,-100.00,SSE,157,1.0,3.0,92,0.00,,,0.00,0.000000,,2013-12-20 07:12:00,
2013-12-20 02:22:00,31.0,29.0,-100.00,SSE,157,1.0,3.0,92,0.00,,,0.00,0.000000,,2013-12-20 07:22:00,
2013-12-20 02:32:00,31.0,29.0,-100.00,SSE,157,1.0,3.0,92,0.00,,,0.00,0.000000,,2013-12-20 07:32:00,
2013-12-20 03:12:00,31.0,29.0,-100.00,SSE,168,1.0,2.0,94,0.00,,,0.00,0.000000,,2013-12-20 08:12:00,
2013-12-20 03:22:00,31.0,29.0,-100.00,SSE,168,1.0,2.0,94,0.00,,,0.00,0.000000,,2013-12-20 08:22:00,
2013-12-20 03:32:00,31.0,29.0,-100.00,SSE,168,1.0,2.0,94,0.00,,,0.00,0.000000,,2013-12-20 08:32:00,
2013-12-20 04:12:00,31.0,30.0,-100.00,SSE,157,1.0,3.0,95,0.00,,,0.00,0.000000,,2013-12-20 09:12:00,
2013-12-20 04:22:00,31.0,30.0,-100.00,SSE,157,1.0,3.0,95,0.00,,,0.00,0.000000,,2013-12-20 09:22:00,
2013-12-20 04:33:00,31.0,30.0,-100.00,SSE,157,1.0,3.0,95,0.00,,,0.00,0.000000,,2013-12-20 09:33:00,
2013-12-20 05:12:00,30.0,29.0,-100.00,SSW,205,2.0,3.0,95,0.00,,,0.00,0.000000,,2013-12-20 10:12:00,
2013-12-20 05:23:00,30.0,29.0,-100.00,SSW,205,2.0,3.0,95,0.00,,,0.00,0.000000,,2013-12-20 10:23:00,
2013-12-20 05:33:00,30.0,29.0,-100.00,SSW,205,2.0,3.0,95,0.00,,,0.00,0.000000,,2013-12-20 10:33:00,
2013-12-20 06:12:00,30.0,29.0,-100.00,SSE,157,1.0,3.0,95,0.00,,,0.00,0.000000,,2013-12-20 11:12:00,
2013-12-20 06:22:00,30.0,29.0,-100.00,SSE,157,1.0,3.0,95,0.00,,,0.00,0.000000,,2013-12-20 11:22:00,
2013-12-20 06:33:00,30.0,29.0,-100.00,SSE,157,1.0,3.0,95,0.00,,,0.00,0.000000,,2013-12-20 11:33:00,
2013-12-20 07:12:00,32.0,31.0,-100.00,SE,139,3.0,5.0,95,0.00,,,0.00,0.000000,,2013-12-20 12:12:00,
2013-12-20 07:23:00,32.0,31.0,-100.00,SE,139,3.0,5.0,95,0.00,,,0.00,0.000000,,2013-12-20 12:23:00,
2013-12-20 07:32:00,32.0,31.0,-100.00,SE,139,3.0,5.0,95,0.00,,,0.00,0.000000,,2013-12-20 12:32:00,
2013-12-20 08:11:00,34.0,30.0,-100.00,SE,126,2.0,7.0,85,0.00,,,0.00,2.000000,,2013-12-20 13:11:00,
2013-12-20 08:22:00,34.0,30.0,-100.00,SE,126,2.0,7.0,85,0.00,,,0.00,2.000000,,2013-12-20 13:22:00,
2013-12-20 08:32:00,34.0,30.0,-100.00,SE,126,2.0,7.0,85,0.00,,,0.00,2.000000,,2013-12-20 13:32:00,
2013-12-20 09:11:00,35.0,30.0,-100.00,SE,132,2.0,6.0,81,0.00,,,0.00,15.000000,,2013-12-20 14:11:00,
2013-12-20 09:22:00,35.0,30.0,-100.00,SE,132,2.0,6.0,81,0.00,,,0.00,15.000000,,2013-12-20 14:22:00,
2013-12-20 09:32:00,35.0,30.0,-100.00,SE,132,2.0,6.0,81,0.00,,,0.00,15.000000,,2013-12-20 14:32:00,
2013-12-20 10:11:00,37.0,31.0,-100.00,SSE,154,4.0,7.0,79,0.00,,,0.00,19.000000,,2013-12-20 15:11:00,
2013-12-20 10:22:00,37.0,31.0,-100.00,SSE,154,4.0,7.0,79,0.00,,,0.00,19.000000,,2013-12-20 15:22:00,
2013-12-20 10:33:00,37.0,31.0,-100.00,SSE,154,4.0,7.0,79,0.00,,,0.00,19.000000,,2013-12-20 15:33:00,
2013-12-20 11:13:00,38.0,33.0,-100.00,SSE,161,3.0,8.0,83,0.00,,,0.00,23.000000,,2013-12-20 16:13:00,
2013-12-20 11:23:00,38.0,33.0,-100.00,SSE,161,3.0,8.0,83,0.00,,,0.00,23.000000,,2013-12-20 16:23:00,
2013-12-20 11:33:00,38.0,33.0,-100.00,SSE,161,3.0,8.0,83,0.00,,,0.00,23.000000,,2013-12-20 16:33:00,
2013-12-20 12:12:00,38.0,34.0,-100.00,SSW,201,3.0,7.0,86,0.00,,,0.00,55.000000,,2013-12-20 17:12:00,
2013-12-20 12:22:00,38.0,34.0,-100.00,SSW,201,3.0,7.0,86,0.00,,,0.00,55.000000,,2013-12-20 17:22:00,
2013-12-20 12:33:00,38.0,34.0,-100.00,SSW,201,3.0,7.0,86,0.00,,,0.00,55.000000,,2013-12-20 17:33:00,
2013-12-20 13:12:00,41.0,36.0,-100.00,SSW,207,5.0,9.0,82,0.00,,,0.00,149.000000,,2013-12-20 18:12:00,
2013-12-20 13:22:00,41.0,36.0,-100.00,SSW,207,5.0,9.0,82,0.00,,,0.00,149.000000,,2013-12-20 18:22:00,
2013-12-20 13:32:00,41.0,36.0,-100.00,SSW,207,5.0,9.0,82,0.00,,,0.00,149.000000,,2013-12-20 18:32:00,
2013-12-20 14:12:00,41.0,36.0,-100.00,SSW,202,3.0,9.0,83,0.00,,,0.00,160.000000,,2013-12-20 19:12:00,
2013-12-20 14:22:00,41.0,36.0,-100.00,SSW,202,3.0,9.0,83,0.00,,,0.00,160.000000,,2013-12-20 19:22:00,
2013-12-20 14:32:00,41.0,36.0,-100.00,SSW,202,3.0,9.0,83,0.00,,,0.00,160.000000,,2013-12-20 19:32:00,
2013-12-20 15:12:00,40.0,38.0,-100.00,SSW,198,3.0,7.0,91,0.00,,,0.00,84.000000,,2013-12-20 20:12:00,
2013-12-20 15:22:00,40.0,38.0,-100.00,SSW,198,3.0,7.0,91,0.00,,,0.00,84.000000,,2013-12-20 20:22:00,
2013-12-20 15:32:00,40.0,38.0,-100.00,SSW,198,3.0,7.0,91,0.00,,,0.00,84.000000,,2013-12-20 20:32:00,
2013-12-20 16:12:00,40.0,38.0,-100.00,SSW,205,3.0,7.0,91,0.00,,,0.00,39.000000,,2013-12-20 21:12:00,
2013-12-20 16:22:00,40.0,38.0,-100.00,SSW,205,3.0,7.0,91,0.00,,,0.00,39.000000,,2013-12-20 21:22:00,
2013-12-20 16:33:00,40.0,38.0,-100.00,SSW,205,3.0,7.0,91,0.00,,,0.00,39.000000,,2013-12-20 21:33:00,
2013-12-20 17:13:00,37.0,35.0,-100.00,SW,227,2.0,6.0,91,0.00,,,0.00,2.000000,,2013-12-20 22:13:00,
2013-12-20 17:23:00,37.0,35.0,-100.00,SW,227,2.0,6.0,91,0.00,,,0.00,2.000000,,2013-12-20 22:23:00,
2013-12-20 17:33:00,37.0,35.0,-100.00,SW,227,2.0,6.0,91,0.00,,,0.00,2.000000,,2013-12-20 22:33:00,
2013-12-20 18:12:00,39.0,38.0,-100.00,SSW,213,5.0,7.0,96,0.00,,,0.00,0.000000,,2013-12-20 23:12:00,
2013-12-20 18:22:00,39.0,38.0,-100.00,SSW,213,5.0,7.0,96,0.00,,,0.00,0.000000,,2013-12-20 23:22:00,
2013-12-20 18:33:00,39.0,38.0,-100.00,SSW,213,5.0,7.0,96,0.00,,,0.00,0.000000,,2013-12-20 23:33:00,
2013-12-20 19:11:00,37.0,36.0,-100.00,SW,216,2.0,7.0,96,0.01,,,0.01,0.000000,,2013-12-21 00:11:00,
2013-12-20 19:22:00,37.0,36.0,-100.00,SW,216,2.0,7.0,96,0.01,,,0.01,0.000000,,2013-12-21 00:22:00,
2013-12-20 19:32:00,37.0,36.0,-100.00,SW,216,2.0,7.0,96,0.01,,,0.01,0.000000,,2013-12-21 00:32:00,
2013-12-20 20:11:00,36.0,35.0,-100.00,SSW,211,2.0,5.0,97,0.00,,,0.01,0.000000,,2013-12-21 01:11:00,
2013-12-20 20:22:00,36.0,35.0,-100.00,SSW,211,2.0,5.0,97,0.00,,,0.01,0.000000,,2013-12-21 01:22:00,
2013-12-20 20:32:00,36.0,35.0,-100.00,SSW,211,2.0,5.0,97,0.00,,,0.01,0.000000,,2013-12-21 01:32:00,
2013-12-20 21:12:00,35.0,34.0,-100.00,SSE,157,1.0,3.0,97,0.01,,,0.02,0.000000,,2013-12-21 02:12:00,
2013-12-20 21:22:00,35.0,34.0,-100.00,SSE,157,1.0,3.0,97,0.01,,,0.02,0.000000,,2013-12-21 02:22:00,
2013-12-20 21:32:00,35.0,34.0,-100.00,SSE,157,1.0,3.0,97,0.01,,,0.02,0.000000,,2013-12-21 02:32:00,
2013-12-20 22:11:00,34.0,33.0,-100.00,North,-999,0.0,2.0,97,0.00,,,0.02,0.000000,,2013-12-21 03:11:00,
2013-12-20 22:22:00,34.0,33.0,-100.00,North,-999,0.0,2.0,97,0.00,,,0.02,0.000000,,2013-12-21 03:22:00,
2013-12-20 22:33:00,34.0,33.0,-100.00,North,-999,0.0,2.0,97,0.00,,,0.02,0.000000,,2013-12-21 03:33:00,
2013-12-20 23:13:00,35.0,34.0,-100.00,ENE,74,1.0,2.0,97,0.00,,,0.02,0.000000,,2013-12-21 04:13:00,
2013-12-20 23:23:00,35.0,34.0,-100.00,ENE,74,1.0,2.0,97,0.00,,,0.02,0.000000,,2013-12-21 04:23:00,
2013-12-20 23:32:00,35.0,34.0,-100.00,ENE,74,1.0,2.0,97,0.00,,,0.02,0.000000,,2013-12-21 04:32:00,